La Porte, Indiana
Current Conditions -  °F | °C
As of 3:55 AM on Friday 19 Dec 2014 (Local Time) from KPPO Reporting Station
Overcast Overcast  
Wind Chill: 21°   Ceiling: 2000
Heat Index: 29°   Visibility: 7mi
Dew Point: 26°   Wind: 9mph
Humidity: 86%   Direction: 270°W
Pressure: 30.24"   Gusts: NA
Location:  41.61°N, 86.72°W
Report Text: KPPO 190955Z AUTO 27008KT 7SM OVC020 M01/M03 A3024 RMK AO2 T10151035
Loading
Personal Weather Stations






























Interactive Weather Map New forecast layout! Learn more

10-Day Weather Forecast

Advertisements
Track Severe Weather on mobile